createdAt,value
2024-04-12T00:01:44.267Z,6.63
2024-04-12T00:04:18.560Z,6.53
2024-04-12T00:06:46.873Z,7.33
2024-04-12T00:09:20.382Z,7.67
2024-04-12T00:11:54.443Z,5.27
2024-04-12T00:14:23.613Z,6.53
2024-04-12T00:16:54.287Z,4.77
2024-04-12T00:19:24.260Z,8.73
2024-04-12T00:21:54.035Z,6.73
2024-04-12T00:24:25.544Z,8.47
2024-04-12T00:26:55.837Z,5.13
2024-04-12T00:29:37.647Z,7.13
2024-04-12T00:32:18.461Z,6.30
2024-04-12T00:34:49.472Z,6.10
2024-04-12T00:37:19.142Z,4.67
2024-04-12T00:39:51.750Z,5.60
2024-04-12T00:42:28.061Z,5.63
2024-04-12T00:44:56.195Z,4.30
2024-04-12T00:47:24.372Z,5.60
2024-04-12T00:49:52.718Z,5.13
2024-04-12T00:52:28.118Z,5.40
2024-04-12T00:55:04.245Z,6.23
2024-04-12T00:57:39.099Z,8.30
2024-04-12T01:00:12.545Z,6.03
2024-04-12T01:02:42.399Z,6.07
2024-04-12T01:05:20.720Z,5.60
2024-04-12T01:07:56.895Z,5.23
2024-04-12T01:10:31.936Z,4.73
2024-04-12T01:13:03.829Z,8.20
2024-04-12T01:15:37.515Z,4.90
2024-04-12T01:18:07.269Z,6.03
2024-04-12T01:20:37.329Z,5.90
2024-04-12T01:23:06.117Z,5.53
2024-04-12T01:25:35.405Z,5.73
2024-04-12T01:28:10.458Z,5.63
2024-04-12T01:30:40.856Z,8.83
2024-04-12T01:33:09.919Z,5.37
2024-04-12T01:35:37.566Z,4.80
2024-04-12T01:38:18.479Z,5.07
2024-04-12T01:40:48.082Z,5.20
2024-04-12T01:43:15.418Z,6.90
2024-04-12T01:45:42.656Z,8.27
2024-04-12T01:48:09.984Z,6.97
2024-04-12T01:50:41.695Z,5.40
2024-04-12T01:53:10.689Z,5.63
2024-04-12T01:55:44.919Z,5.97
2024-04-12T01:58:12.242Z,6.13
2024-04-12T02:00:41.371Z,6.60
2024-04-12T02:03:11.874Z,6.40
2024-04-12T02:05:39.422Z,5.23
2024-04-12T02:08:17.797Z,4.73
2024-04-12T02:10:49.507Z,4.83
2024-04-12T02:13:23.491Z,5.77
2024-04-12T02:15:53.862Z,9.93
2024-04-12T02:18:23.086Z,4.73
2024-04-12T02:20:53.756Z,6.10
2024-04-12T02:23:23.196Z,4.50
2024-04-12T02:25:51.936Z,4.97
2024-04-12T02:28:20.051Z,3.93
2024-04-12T02:30:56.657Z,5.80
2024-04-12T02:33:31.390Z,6.03
2024-04-12T02:36:17.565Z,4.70
2024-04-12T02:38:51.292Z,4.03
2024-04-12T02:41:18.962Z,7.57
2024-04-12T02:43:53.939Z,5.50
2024-04-12T02:46:23.310Z,5.30
2024-04-12T02:48:50.979Z,4.37
2024-04-12T02:51:19.959Z,5.30
2024-04-12T02:53:49.482Z,5.20
2024-04-12T02:56:18.954Z,5.70
2024-04-12T02:58:47.601Z,7.57
2024-04-12T03:01:20.243Z,4.13
2024-04-12T03:03:49.669Z,5.43
2024-04-12T03:06:25.145Z,4.60
2024-04-12T03:09:01.490Z,5.83
2024-04-12T03:11:37.505Z,6.57
2024-04-12T03:14:14.091Z,4.30
2024-04-12T03:16:43.204Z,7.90
2024-04-12T03:19:12.413Z,5.90
2024-04-12T03:21:41.944Z,7.43
2024-04-12T03:24:10.724Z,6.07
2024-04-12T03:26:38.448Z,5.07
2024-04-12T03:29:10.036Z,7.73
2024-04-12T03:31:40.955Z,6.63
2024-04-12T03:34:14.396Z,5.70
2024-04-12T03:36:46.426Z,5.17
2024-04-12T03:39:22.946Z,5.27
2024-04-12T03:42:05.254Z,7.30
2024-04-12T03:44:35.478Z,6.50
2024-04-12T03:47:12.422Z,5.90
2024-04-12T03:49:42.170Z,7.30
2024-04-12T03:52:15.451Z,5.80
2024-04-12T03:54:46.429Z,6.67
2024-04-12T03:57:14.662Z,5.37
2024-04-12T03:59:45.081Z,5.80
2024-04-12T04:02:15.017Z,5.13
2024-04-12T04:04:47.338Z,5.57
2024-04-12T04:07:17.665Z,5.43
2024-04-12T04:09:45.556Z,6.00
2024-04-12T04:12:16.760Z,5.80
2024-04-12T04:14:49.620Z,5.70
2024-04-12T04:17:19.581Z,6.00
2024-04-12T04:19:47.202Z,6.23
2024-04-12T04:22:40.719Z,5.93
2024-04-12T04:25:12.057Z,6.67
2024-04-12T04:27:39.959Z,5.00
2024-04-12T04:30:08.180Z,5.70
2024-04-12T04:32:35.840Z,6.80
2024-04-12T04:35:07.272Z,6.80
2024-04-12T04:37:36.091Z,7.27
2024-04-12T04:40:10.217Z,6.87
2024-04-12T04:42:38.711Z,6.47
2024-04-12T04:45:09.726Z,8.27
2024-04-12T04:47:40.803Z,5.70
2024-04-12T04:50:14.152Z,4.50
2024-04-12T04:52:41.762Z,6.23
2024-04-12T04:55:13.160Z,5.17
2024-04-12T04:57:44.935Z,8.70
2024-04-12T05:00:24.018Z,4.87
2024-04-12T05:02:54.276Z,11.37
2024-04-12T05:05:27.082Z,6.43
2024-04-12T05:07:59.141Z,7.80
2024-04-12T05:10:34.912Z,5.77
2024-04-12T05:13:06.873Z,4.80
2024-04-12T05:15:43.184Z,6.93
2024-04-12T05:18:14.408Z,4.70
2024-04-12T05:20:43.667Z,6.13
2024-04-12T05:23:13.496Z,9.60
2024-04-12T05:25:41.948Z,5.93
2024-04-12T05:28:09.367Z,5.53
2024-04-12T05:30:43.764Z,6.77
2024-04-12T05:33:11.678Z,7.00
2024-04-12T05:35:39.181Z,5.63
2024-04-12T05:38:09.680Z,4.33
2024-04-12T05:40:42.654Z,6.80
2024-04-12T05:43:17.917Z,6.00
2024-04-12T05:45:51.000Z,5.10
2024-04-12T05:48:19.220Z,6.03
2024-04-12T05:50:51.117Z,7.37
2024-04-12T05:53:20.616Z,5.87
2024-04-12T05:55:53.692Z,5.00
2024-04-12T05:58:24.969Z,7.73
2024-04-12T06:00:52.256Z,9.33
2024-04-12T06:03:19.651Z,7.83
2024-04-12T06:05:56.563Z,6.33
2024-04-12T06:08:27.228Z,6.43
2024-04-12T06:10:56.676Z,5.73
2024-04-12T06:13:25.347Z,7.90
2024-04-12T06:15:55.454Z,7.37
2024-04-12T06:18:23.219Z,8.33
2024-04-12T06:20:51.975Z,16.10
2024-04-12T06:23:20.786Z,6.20
2024-04-12T06:25:50.855Z,9.73
2024-04-12T06:28:20.866Z,6.00
2024-04-12T06:30:50.482Z,5.73
2024-04-12T06:33:24.419Z,6.50
2024-04-12T06:36:06.767Z,5.70
2024-04-12T06:38:35.953Z,5.13
2024-04-12T06:41:04.784Z,6.37
2024-04-12T06:43:34.968Z,5.20
2024-04-12T06:46:15.545Z,4.70
2024-04-12T06:48:43.964Z,7.63
2024-04-12T06:51:15.524Z,7.10
2024-04-12T06:53:47.875Z,9.23
2024-04-12T06:56:19.261Z,6.20
2024-04-12T06:58:47.798Z,6.97
2024-04-12T07:01:16.623Z,7.47
2024-04-12T07:03:48.267Z,5.50
2024-04-12T07:06:17.646Z,7.97
2024-04-12T07:08:51.409Z,5.97
2024-04-12T07:11:19.696Z,5.93
2024-04-12T07:13:54.801Z,9.03
2024-04-12T07:16:22.872Z,7.17
2024-04-12T07:18:51.207Z,6.33
2024-04-12T07:21:23.867Z,9.13
2024-04-12T07:23:52.882Z,9.27
2024-04-12T07:26:28.728Z,10.33
2024-04-12T07:29:01.877Z,7.23
2024-04-12T07:31:36.319Z,9.87
2024-04-12T07:34:06.613Z,6.93
2024-04-12T07:36:35.453Z,6.73
2024-04-12T07:39:09.200Z,8.53
2024-04-12T07:41:46.859Z,8.00
2024-04-12T07:44:14.771Z,8.10
2024-04-12T07:46:50.217Z,9.40
2024-04-12T07:49:19.004Z,10.50
2024-04-12T07:51:47.114Z,10.03
2024-04-12T07:54:16.534Z,9.13
2024-04-12T07:57:03.970Z,6.90
2024-04-12T07:59:34.504Z,12.80
2024-04-12T08:02:09.968Z,8.57
2024-04-12T08:04:39.087Z,7.33
2024-04-12T08:07:14.670Z,9.40
2024-04-12T08:09:45.714Z,8.97
2024-04-12T08:12:18.654Z,10.03
2024-04-12T08:14:55.064Z,10.20
2024-04-12T08:17:25.434Z,8.67
2024-04-12T08:19:58.419Z,8.63
2024-04-12T08:22:27.341Z,12.00
2024-04-12T08:24:56.143Z,10.83
2024-04-12T08:27:26.926Z,8.03
2024-04-12T08:29:59.624Z,9.47
2024-04-12T08:32:33.476Z,7.93
2024-04-12T08:35:07.737Z,6.27
2024-04-12T08:37:39.588Z,7.33
2024-04-12T08:40:11.827Z,9.07
2024-04-12T08:42:40.779Z,12.70
2024-04-12T08:45:15.924Z,8.20
2024-04-12T08:48:05.743Z,8.80
2024-04-12T08:50:36.449Z,5.60
2024-04-12T08:53:12.727Z,11.23
2024-04-12T08:55:44.481Z,8.13
2024-04-12T08:58:12.146Z,9.60
2024-04-12T09:00:41.143Z,6.33
2024-04-12T09:03:26.535Z,9.50
2024-04-12T09:05:54.738Z,9.53
2024-04-12T09:08:23.694Z,7.10
2024-04-12T09:10:54.528Z,5.67
2024-04-12T09:13:22.718Z,7.17
2024-04-12T09:15:51.857Z,6.63
2024-04-12T09:18:27.726Z,5.97
2024-04-12T09:21:07.591Z,6.20
2024-04-12T09:23:37.762Z,6.37
2024-04-12T09:26:26.459Z,10.40
2024-04-12T09:29:10.420Z,8.20
2024-04-12T09:31:57.774Z,6.90
2024-04-12T09:34:36.820Z,6.00
2024-04-12T09:37:27.370Z,7.03
2024-04-12T09:40:00.952Z,9.27
2024-04-12T09:43:01.623Z,6.10
2024-04-12T09:45:46.648Z,6.47
2024-04-12T09:48:32.896Z,5.20
2024-04-12T09:51:18.927Z,8.37
2024-04-12T09:54:04.889Z,7.10
2024-04-12T09:56:53.441Z,7.63
2024-04-12T09:59:48.830Z,7.53
2024-04-12T10:02:42.597Z,8.80
2024-04-12T10:05:29.484Z,9.47
2024-04-12T10:08:28.895Z,6.37
2024-04-12T10:11:17.274Z,6.13
2024-04-12T10:14:04.530Z,7.73
2024-04-12T10:16:59.498Z,6.83
2024-04-12T10:19:45.917Z,5.70
2024-04-12T10:22:33.313Z,8.03
2024-04-12T10:25:23.023Z,6.73
2024-04-12T10:28:12.556Z,5.23
2024-04-12T10:31:06.214Z,7.13
2024-04-12T10:34:04.704Z,5.00
2024-04-12T10:36:51.080Z,6.23
2024-04-12T10:39:19.118Z,4.07
2024-04-12T10:41:47.204Z,7.50
2024-04-12T10:44:14.839Z,6.53
2024-04-12T10:46:42.735Z,5.43
2024-04-12T10:49:13.439Z,6.30
2024-04-12T10:51:41.748Z,7.13
2024-04-12T10:54:15.653Z,6.33
2024-04-12T10:56:46.952Z,6.23
2024-04-12T10:59:27.956Z,6.63
2024-04-12T11:02:00.948Z,5.77
2024-04-12T11:04:35.831Z,5.07
2024-04-12T11:07:03.613Z,7.93
2024-04-12T11:09:39.215Z,7.47
2024-04-12T11:12:11.959Z,6.47
2024-04-12T11:14:39.933Z,6.60
2024-04-12T11:17:27.471Z,4.30
2024-04-12T11:20:13.382Z,6.20
2024-04-12T11:22:59.457Z,4.57
2024-04-12T11:25:45.463Z,4.97
2024-04-12T11:28:31.150Z,5.53
2024-04-12T11:31:17.455Z,5.33
2024-04-12T11:34:01.026Z,7.70
2024-04-12T11:36:40.798Z,4.93
2024-04-12T11:39:19.296Z,6.57
2024-04-12T11:41:48.245Z,4.07
2024-04-12T11:44:18.715Z,3.87
2024-04-12T11:46:46.700Z,7.10
2024-04-12T11:49:14.885Z,5.20
2024-04-12T11:51:42.340Z,6.63
2024-04-12T11:54:15.033Z,4.70
2024-04-12T11:56:42.555Z,5.20
2024-04-12T11:59:14.148Z,3.90
2024-04-12T12:01:42.986Z,4.83
2024-04-12T12:04:10.385Z,5.97
2024-04-12T12:06:38.426Z,5.20
2024-04-12T12:09:13.141Z,8.13
2024-04-12T12:11:44.747Z,4.00
2024-04-12T12:14:14.608Z,6.63
2024-04-12T12:16:41.931Z,4.20
2024-04-12T12:19:09.802Z,6.43
2024-04-12T12:21:40.070Z,6.03
2024-04-12T12:24:07.846Z,5.10
2024-04-12T12:26:35.780Z,6.87
2024-04-12T12:29:03.101Z,4.23
2024-04-12T12:31:30.395Z,5.03
2024-04-12T12:33:58.535Z,5.03
2024-04-12T12:36:29.080Z,5.00
2024-04-12T12:38:56.395Z,4.70
2024-04-12T12:41:25.012Z,4.90
2024-04-12T12:43:54.291Z,4.47
2024-04-12T12:46:25.379Z,6.00
2024-04-12T12:48:56.535Z,4.87
2024-04-12T12:51:27.533Z,5.63
2024-04-12T12:53:55.234Z,5.37
2024-04-12T12:56:22.938Z,4.80
2024-04-12T12:58:50.318Z,5.03
2024-04-12T13:01:17.903Z,2.93
2024-04-12T13:03:45.563Z,3.73
2024-04-12T13:06:22.409Z,6.20
2024-04-12T13:08:50.111Z,4.33
2024-04-12T13:11:25.349Z,4.33
2024-04-12T13:13:53.181Z,4.37
2024-04-12T13:16:20.972Z,3.50
2024-04-12T13:18:54.086Z,3.30
2024-04-12T13:21:24.730Z,3.67
2024-04-12T13:23:52.172Z,4.30
2024-04-12T13:26:26.783Z,3.77
2024-04-12T13:28:54.723Z,5.23
2024-04-12T13:31:26.533Z,4.30
2024-04-12T13:33:55.369Z,3.20
2024-04-12T13:36:25.786Z,4.17
2024-04-12T13:38:55.037Z,2.87
2024-04-12T13:41:22.636Z,3.77
2024-04-12T13:43:50.926Z,3.23
2024-04-12T13:46:42.887Z,3.83
2024-04-12T13:49:30.777Z,4.00
2024-04-12T13:52:01.359Z,4.37
2024-04-12T13:54:28.639Z,4.33
2024-04-12T13:57:00.206Z,2.20
2024-04-12T13:59:31.518Z,4.03
2024-04-12T14:02:00.214Z,2.73
2024-04-12T14:04:28.741Z,2.93
2024-04-12T14:06:56.216Z,3.57
2024-04-12T14:09:25.059Z,3.00
2024-04-12T14:11:52.808Z,3.80
2024-04-12T14:14:21.927Z,3.90
2024-04-12T14:16:49.749Z,3.17
2024-04-12T14:19:20.327Z,2.10
2024-04-12T14:21:52.834Z,6.13
2024-04-12T14:24:40.888Z,2.30
2024-04-12T14:27:08.818Z,4.40
2024-04-12T14:29:37.648Z,3.27
2024-04-12T14:32:08.528Z,4.57
2024-04-12T14:34:37.080Z,2.77
2024-04-12T14:37:05.588Z,3.83
2024-04-12T14:39:34.268Z,1.80
2024-04-12T14:42:03.247Z,4.60
2024-04-12T14:44:40.334Z,2.67
2024-04-12T14:47:08.835Z,2.17
2024-04-12T14:49:36.351Z,4.60
2024-04-12T14:52:05.006Z,3.80
2024-04-12T14:54:32.807Z,4.13
2024-04-12T14:57:00.244Z,4.07
2024-04-12T14:59:32.751Z,3.53
2024-04-12T15:02:04.079Z,2.50
2024-04-12T15:04:50.365Z,4.80
2024-04-12T15:07:36.416Z,2.93
2024-04-12T15:10:23.939Z,5.03
2024-04-12T15:13:10.533Z,3.37
2024-04-12T15:15:56.846Z,2.27
2024-04-12T15:18:42.761Z,3.93
2024-04-12T15:21:29.064Z,4.20
2024-04-12T15:24:15.657Z,3.37
2024-04-12T15:27:01.402Z,2.87
2024-04-12T15:29:47.245Z,2.67
2024-04-12T15:32:33.062Z,2.57
2024-04-12T15:35:18.908Z,5.30
2024-04-12T15:38:08.154Z,3.40
2024-04-12T15:40:55.655Z,3.47
2024-04-12T15:43:41.622Z,3.23
2024-04-12T15:46:27.501Z,4.60
2024-04-12T15:48:54.805Z,5.73
2024-04-12T15:51:27.570Z,5.47
2024-04-12T15:54:01.502Z,5.17
2024-04-12T15:56:29.235Z,3.57
2024-04-12T15:59:15.396Z,4.07
2024-04-12T16:02:01.547Z,4.23
2024-04-12T16:04:47.349Z,2.60
2024-04-12T16:07:33.240Z,2.13
2024-04-12T16:10:19.095Z,2.23
2024-04-12T16:12:46.427Z,2.33
2024-04-12T16:15:13.776Z,2.40
2024-04-12T16:17:43.033Z,3.10
2024-04-12T16:20:10.579Z,4.10
2024-04-12T16:22:39.691Z,3.63
2024-04-12T16:25:07.208Z,2.70
2024-04-12T16:27:34.732Z,2.43
2024-04-12T16:30:02.654Z,2.17
2024-04-12T16:32:30.145Z,3.50
2024-04-12T16:34:58.977Z,3.90
2024-04-12T16:37:26.489Z,3.33
2024-04-12T16:39:53.864Z,4.40
2024-04-12T16:42:21.343Z,3.83
2024-04-12T16:44:48.700Z,3.30
2024-04-12T16:47:16.308Z,3.30
2024-04-12T16:49:43.626Z,2.30
2024-04-12T16:52:10.995Z,2.83
2024-04-12T16:54:38.320Z,2.27
2024-04-12T16:57:06.688Z,3.13
2024-04-12T16:59:34.274Z,2.00
2024-04-12T17:02:02.012Z,2.60
2024-04-12T17:04:29.312Z,3.43
2024-04-12T17:06:56.660Z,4.83
2024-04-12T17:09:25.897Z,3.30
2024-04-12T17:11:53.274Z,4.90
2024-04-12T17:14:20.558Z,3.30
2024-04-12T17:16:49.584Z,2.50
2024-04-12T17:19:17.371Z,3.83
2024-04-12T17:21:44.710Z,3.00
2024-04-12T17:24:15.086Z,2.97
2024-04-12T17:26:43.442Z,3.03
2024-04-12T17:29:11.081Z,2.33
2024-04-12T17:31:38.657Z,3.53
2024-04-12T17:34:05.951Z,8.70
2024-04-12T17:36:33.190Z,4.03
2024-04-12T17:39:07.707Z,3.50
2024-04-12T17:41:35.262Z,3.50
2024-04-12T17:44:02.564Z,3.93
2024-04-12T17:46:31.607Z,3.53
2024-04-12T17:49:00.528Z,4.90
2024-04-12T17:51:28.431Z,4.67
2024-04-12T17:53:56.074Z,4.70
2024-04-12T17:56:23.544Z,4.70
2024-04-12T17:58:53.597Z,3.77
2024-04-12T18:01:23.460Z,2.83
2024-04-12T18:03:51.795Z,6.33
2024-04-12T18:06:19.202Z,3.37
2024-04-12T18:08:46.545Z,3.43
2024-04-12T18:11:15.222Z,4.27
2024-04-12T18:13:42.642Z,6.90
2024-04-12T18:16:11.292Z,3.60
2024-04-12T18:18:38.588Z,4.03
2024-04-12T18:21:07.753Z,4.93
2024-04-12T18:23:36.458Z,4.27
2024-04-12T18:26:04.741Z,4.10
2024-04-12T18:28:31.993Z,7.03
2024-04-12T18:31:00.319Z,4.17
2024-04-12T18:33:27.678Z,3.70
2024-04-12T18:36:02.349Z,7.00
2024-04-12T18:38:48.265Z,4.73
2024-04-12T18:41:34.164Z,5.93
2024-04-12T18:44:20.214Z,6.23
2024-04-12T18:46:47.493Z,5.80
2024-04-12T18:49:14.824Z,5.17
2024-04-12T18:51:42.240Z,3.17
2024-04-12T18:54:09.722Z,5.53
2024-04-12T18:56:37.250Z,4.63
2024-04-12T18:59:04.866Z,2.77
2024-04-12T19:01:32.191Z,5.03
2024-04-12T19:04:00.812Z,4.83
2024-04-12T19:06:28.529Z,4.93
2024-04-12T19:08:58.215Z,2.97
2024-04-12T19:11:27.267Z,3.83
2024-04-12T19:13:55.057Z,4.80
2024-04-12T19:16:22.684Z,4.87
2024-04-12T19:18:50.353Z,5.40
2024-04-12T19:21:18.053Z,6.23
2024-04-12T19:23:45.735Z,4.90
2024-04-12T19:26:13.634Z,4.83
2024-04-12T19:28:41.243Z,4.57
2024-04-12T19:31:09.166Z,6.93
2024-04-12T19:33:37.217Z,5.67
2024-04-12T19:36:05.693Z,6.03
2024-04-12T19:38:33.836Z,5.47
2024-04-12T19:41:02.321Z,6.70
2024-04-12T19:43:31.086Z,11.27
2024-04-12T19:45:59.782Z,147.87
2024-04-12T19:48:30.641Z,82.93
2024-04-12T19:50:59.702Z,82.50
2024-04-12T19:53:27.474Z,90.03
2024-04-12T19:55:55.988Z,53.40
2024-04-12T19:58:24.549Z,27.63
2024-04-12T20:00:52.650Z,16.73
2024-04-12T20:03:22.260Z,11.93
2024-04-12T20:05:50.468Z,8.97
2024-04-12T20:08:20.163Z,10.27
2024-04-12T20:10:57.643Z,8.10
2024-04-12T20:13:25.622Z,5.93
2024-04-12T20:16:02.882Z,6.93
2024-04-12T20:18:31.332Z,7.37
2024-04-12T20:21:02.032Z,10.00
2024-04-12T20:23:30.773Z,8.87
2024-04-12T20:25:59.035Z,8.93
2024-04-12T20:28:28.505Z,6.10
2024-04-12T20:31:16.185Z,7.50
2024-04-12T20:33:57.516Z,7.40
2024-04-12T20:36:38.687Z,5.73
2024-04-12T20:39:10.570Z,6.50
2024-04-12T20:41:39.067Z,6.90
2024-04-12T20:44:07.653Z,5.87
2024-04-12T20:46:36.594Z,5.23
2024-04-12T20:49:04.791Z,5.70
2024-04-12T20:51:32.998Z,6.93
2024-04-12T20:54:01.236Z,4.67
2024-04-12T20:56:30.252Z,5.90
2024-04-12T20:58:58.777Z,5.57
2024-04-12T21:01:30.831Z,6.80
2024-04-12T21:03:58.885Z,6.07
2024-04-12T21:06:31.888Z,6.67
2024-04-12T21:08:59.839Z,4.57
2024-04-12T21:11:27.655Z,7.97
2024-04-12T21:13:55.415Z,4.40
2024-04-12T21:16:23.105Z,5.37
2024-04-12T21:18:54.188Z,5.77
2024-04-12T21:21:21.966Z,4.87
2024-04-12T21:23:49.546Z,4.77
2024-04-12T21:26:24.087Z,6.03
2024-04-12T21:28:52.013Z,5.53
2024-04-12T21:31:19.875Z,3.50
2024-04-12T21:33:47.648Z,8.00
2024-04-12T21:36:16.225Z,5.90
2024-04-12T21:38:46.263Z,5.67
2024-04-12T21:41:15.488Z,4.10
2024-04-12T21:43:43.766Z,7.83
2024-04-12T21:46:12.522Z,3.57
2024-04-12T21:48:41.090Z,6.63
2024-04-12T21:51:09.372Z,4.47
2024-04-12T21:53:37.622Z,4.43
2024-04-12T21:56:07.401Z,7.40
2024-04-12T21:58:35.110Z,6.43
2024-04-12T22:01:13.446Z,5.27
2024-04-12T22:03:41.724Z,5.73
2024-04-12T22:06:11.803Z,5.53
2024-04-12T22:08:41.373Z,5.53
2024-04-12T22:11:09.347Z,5.67
2024-04-12T22:13:40.354Z,5.47
2024-04-12T22:16:13.462Z,4.20
2024-04-12T22:18:42.249Z,5.97
2024-04-12T22:21:10.218Z,6.27
2024-04-12T22:23:41.395Z,5.40
2024-04-12T22:26:10.080Z,9.20
2024-04-12T22:28:42.430Z,8.13
2024-04-12T22:31:16.539Z,9.57
2024-04-12T22:33:54.340Z,12.97
2024-04-12T22:36:22.880Z,8.37
2024-04-12T22:38:50.984Z,9.83
2024-04-12T22:41:18.830Z,6.10
2024-04-12T22:43:46.911Z,6.80
2024-04-12T22:46:15.609Z,6.40
2024-04-12T22:48:45.214Z,9.33
2024-04-12T22:51:24.360Z,7.20
2024-04-12T22:53:52.644Z,4.30
2024-04-12T22:56:24.920Z,6.33
2024-04-12T22:58:56.438Z,7.67
2024-04-12T23:01:24.079Z,6.10
2024-04-12T23:03:52.224Z,6.60
2024-04-12T23:06:21.041Z,6.63
2024-04-12T23:08:48.723Z,4.93
2024-04-12T23:11:16.345Z,3.83
2024-04-12T23:13:44.002Z,7.27
2024-04-12T23:16:11.601Z,5.27
2024-04-12T23:18:39.288Z,6.73
2024-04-12T23:21:06.923Z,4.87
2024-04-12T23:23:35.777Z,5.03
2024-04-12T23:26:03.999Z,5.33
2024-04-12T23:28:31.715Z,5.73
2024-04-12T23:30:59.297Z,6.60
2024-04-12T23:33:28.442Z,5.03
2024-04-12T23:35:56.261Z,4.97
2024-04-12T23:38:23.985Z,5.73
2024-04-12T23:40:51.531Z,5.43
2024-04-12T23:43:19.084Z,4.77
2024-04-12T23:45:48.892Z,5.10
2024-04-12T23:48:16.943Z,5.83
2024-04-12T23:50:46.828Z,6.53
2024-04-12T23:53:14.495Z,6.60
2024-04-12T23:55:42.092Z,5.50
2024-04-12T23:58:09.736Z,6.33
